createdAt,value
2022-12-22T00:01:05.435Z,36.13
2022-12-22T00:03:51.113Z,34.17
2022-12-22T00:06:36.676Z,35.67
2022-12-22T00:09:22.513Z,35.93
2022-12-22T00:12:07.703Z,35.27
2022-12-22T00:14:53.477Z,37.17
2022-12-22T00:17:46.796Z,38.03
2022-12-22T00:20:37.652Z,37.13
2022-12-22T00:23:23.341Z,35.80
2022-12-22T00:26:08.770Z,36.43
2022-12-22T00:28:54.896Z,38.80
2022-12-22T00:31:41.087Z,37.73
2022-12-22T00:34:38.724Z,37.07
2022-12-22T00:37:25.822Z,37.97
2022-12-22T00:40:11.004Z,39.70
2022-12-22T00:42:56.235Z,39.47
2022-12-22T00:45:41.771Z,39.83
2022-12-22T00:48:42.136Z,40.27
2022-12-22T00:51:27.888Z,42.13
2022-12-22T00:54:13.180Z,41.40
2022-12-22T00:56:58.452Z,40.03
2022-12-22T00:59:44.648Z,41.33
2022-12-22T01:02:30.121Z,41.60
2022-12-22T01:05:16.049Z,42.07
2022-12-22T01:08:01.238Z,40.27
2022-12-22T01:10:46.199Z,40.20
2022-12-22T01:13:33.091Z,40.60
2022-12-22T01:16:18.783Z,43.83
2022-12-22T01:19:04.209Z,42.63
2022-12-22T01:21:49.675Z,42.37
2022-12-22T01:24:36.763Z,39.30
2022-12-22T01:27:22.838Z,43.33
2022-12-22T01:30:07.993Z,42.93
2022-12-22T01:32:53.068Z,43.13
2022-12-22T01:35:51.472Z,40.90
2022-12-22T01:38:36.674Z,42.87
2022-12-22T01:41:22.792Z,44.67
2022-12-22T01:44:08.410Z,43.03
2022-12-22T01:47:02.141Z,41.03
2022-12-22T01:49:59.895Z,42.63
2022-12-22T01:52:51.509Z,43.90
2022-12-22T01:55:40.245Z,39.47
2022-12-22T01:58:39.296Z,43.37
2022-12-22T02:01:24.555Z,41.57
2022-12-22T02:04:09.785Z,40.60
2022-12-22T02:07:00.431Z,41.47
2022-12-22T02:10:16.829Z,44.10
2022-12-22T02:13:13.125Z,39.53
2022-12-22T02:16:06.272Z,38.90
2022-12-22T02:19:26.926Z,39.87
2022-12-22T02:22:36.728Z,39.60
2022-12-22T02:25:25.991Z,41.80
2022-12-22T02:28:12.231Z,41.13
2022-12-22T02:30:58.379Z,42.03
2022-12-22T02:33:44.083Z,40.50
2022-12-22T02:36:49.538Z,41.23
2022-12-22T02:39:53.359Z,39.77
2022-12-22T02:42:54.132Z,39.20
2022-12-22T02:45:48.864Z,38.63
2022-12-22T02:49:00.343Z,39.63
2022-12-22T02:51:47.978Z,41.30
2022-12-22T02:54:33.533Z,42.27
2022-12-22T02:57:21.727Z,37.13
2022-12-22T03:00:06.874Z,40.13
2022-12-22T03:02:52.328Z,39.67
2022-12-22T03:05:37.529Z,39.30
2022-12-22T03:08:22.596Z,41.20
2022-12-22T03:11:07.754Z,39.67
2022-12-22T03:13:52.947Z,40.07
2022-12-22T03:16:38.240Z,37.70
2022-12-22T03:19:23.459Z,38.63
2022-12-22T03:22:08.706Z,38.50
2022-12-22T03:24:53.826Z,38.20
2022-12-22T03:27:20.362Z,40.10
2022-12-22T03:29:46.785Z,39.30
2022-12-22T03:32:13.287Z,38.37
2022-12-22T03:34:39.726Z,40.03
2022-12-22T03:37:06.183Z,39.60
2022-12-22T03:39:32.644Z,40.97
2022-12-22T03:42:17.651Z,37.27
2022-12-22T03:45:02.798Z,38.90
2022-12-22T03:47:31.142Z,38.53
2022-12-22T03:49:57.614Z,39.53
2022-12-22T03:52:24.162Z,39.30
2022-12-22T03:54:51.323Z,41.03
2022-12-22T03:57:17.786Z,42.17
2022-12-22T03:59:44.239Z,39.73
2022-12-22T04:02:10.880Z,39.83
2022-12-22T04:04:37.397Z,40.53
2022-12-22T04:07:03.851Z,42.43
2022-12-22T04:09:30.325Z,38.57
2022-12-22T04:12:15.422Z,39.83
2022-12-22T04:14:41.917Z,38.67
2022-12-22T04:17:09.747Z,44.33
2022-12-22T04:19:36.196Z,40.93
2022-12-22T04:22:02.735Z,41.30
2022-12-22T04:24:29.289Z,37.63
2022-12-22T04:26:55.790Z,39.17
2022-12-22T04:29:22.251Z,39.60
2022-12-22T04:31:48.749Z,41.07
2022-12-22T04:34:15.322Z,39.73
2022-12-22T04:36:41.772Z,39.97
2022-12-22T04:39:08.246Z,39.70
2022-12-22T04:41:34.699Z,40.23
2022-12-22T04:44:01.187Z,39.77
2022-12-22T04:46:27.789Z,40.77
2022-12-22T04:48:59.641Z,39.80
2022-12-22T04:51:27.016Z,37.67
2022-12-22T04:53:53.550Z,41.90
2022-12-22T04:56:20.020Z,38.33
2022-12-22T04:58:46.533Z,41.60
2022-12-22T05:01:15.810Z,39.13
2022-12-22T05:03:42.675Z,37.93
2022-12-22T05:06:09.283Z,38.77
2022-12-22T05:08:36.062Z,39.77
2022-12-22T05:11:03.015Z,40.30
2022-12-22T05:13:30.960Z,44.47
2022-12-22T05:16:08.882Z,41.07
2022-12-22T05:18:35.784Z,41.27
2022-12-22T05:21:04.542Z,40.97
2022-12-22T05:23:30.993Z,45.17
2022-12-22T05:25:57.522Z,41.13
2022-12-22T05:28:24.000Z,40.63
2022-12-22T05:30:50.475Z,38.97
2022-12-22T05:33:17.123Z,38.13
2022-12-22T05:35:43.614Z,37.30
2022-12-22T05:38:10.085Z,37.03
2022-12-22T05:40:36.521Z,39.30
2022-12-22T05:43:03.089Z,37.87
2022-12-22T05:45:29.525Z,39.83
2022-12-22T05:47:56.041Z,39.93
2022-12-22T05:50:24.573Z,38.23
2022-12-22T05:52:51.008Z,40.00
2022-12-22T05:55:17.601Z,39.93
2022-12-22T05:57:44.118Z,39.37
2022-12-22T06:00:13.822Z,34.70
2022-12-22T06:02:41.605Z,35.00
2022-12-22T06:05:08.625Z,34.93
2022-12-22T06:07:35.073Z,31.10
2022-12-22T06:10:07.856Z,34.20
2022-12-22T06:12:38.096Z,30.67
2022-12-22T06:15:05.670Z,33.27
2022-12-22T06:17:32.123Z,31.53
2022-12-22T06:19:58.569Z,30.33
2022-12-22T06:22:25.035Z,29.30
2022-12-22T06:24:51.512Z,31.77
2022-12-22T06:27:17.954Z,29.73
2022-12-22T06:29:44.425Z,32.30
2022-12-22T06:32:10.848Z,28.87
2022-12-22T06:34:37.324Z,30.70
2022-12-22T06:37:03.792Z,28.23
2022-12-22T06:39:30.420Z,29.33
2022-12-22T06:42:15.327Z,29.20
2022-12-22T06:44:41.904Z,27.20
2022-12-22T06:47:08.432Z,26.93
2022-12-22T06:49:34.908Z,27.83
2022-12-22T06:52:01.359Z,28.20
2022-12-22T06:54:27.838Z,29.33
2022-12-22T06:56:54.331Z,29.80
2022-12-22T06:59:20.918Z,28.40
2022-12-22T07:01:47.477Z,27.60
2022-12-22T07:04:19.835Z,29.23
2022-12-22T07:06:47.653Z,27.20
2022-12-22T07:09:14.131Z,29.17
2022-12-22T07:11:40.729Z,29.70
2022-12-22T07:14:07.333Z,29.43
2022-12-22T07:16:34.472Z,30.77
2022-12-22T07:19:01.034Z,30.63
2022-12-22T07:21:27.484Z,31.73
2022-12-22T07:23:53.942Z,30.90
2022-12-22T07:26:20.436Z,29.87
2022-12-22T07:28:46.908Z,31.93
2022-12-22T07:31:14.320Z,33.73
2022-12-22T07:33:40.909Z,36.00
2022-12-22T07:36:12.479Z,31.87
2022-12-22T07:38:41.027Z,32.60
2022-12-22T07:41:28.321Z,34.00
2022-12-22T07:43:56.481Z,33.27
2022-12-22T07:46:24.010Z,32.73
2022-12-22T07:49:09.182Z,33.93
2022-12-22T07:51:37.190Z,34.47
2022-12-22T07:54:10.855Z,38.53
2022-12-22T07:56:37.538Z,39.43
2022-12-22T07:59:04.057Z,35.20
2022-12-22T08:01:30.600Z,36.47
2022-12-22T08:03:58.201Z,38.47
2022-12-22T08:06:25.126Z,39.77
2022-12-22T08:08:52.075Z,33.80
2022-12-22T08:11:18.803Z,35.93
2022-12-22T08:13:46.548Z,35.70
2022-12-22T08:16:14.111Z,38.77
2022-12-22T08:18:41.000Z,37.07
2022-12-22T08:21:08.138Z,47.20
2022-12-22T08:23:35.444Z,51.87
2022-12-22T08:26:07.806Z,50.67
2022-12-22T08:28:37.521Z,51.97
2022-12-22T08:31:04.247Z,43.50
2022-12-22T08:33:30.846Z,44.73
2022-12-22T08:36:04.283Z,48.10
2022-12-22T08:38:34.584Z,47.43
2022-12-22T08:41:01.056Z,42.33
2022-12-22T08:43:29.029Z,48.37
2022-12-22T08:45:55.511Z,48.27
2022-12-22T08:48:21.954Z,53.37
2022-12-22T08:50:48.409Z,51.20
2022-12-22T08:53:45.309Z,54.77
2022-12-22T08:56:01.313Z,49.30
2022-12-22T08:58:27.751Z,54.43
2022-12-22T09:00:54.253Z,56.47
2022-12-22T09:03:20.953Z,52.80
2022-12-22T09:05:47.505Z,47.80
2022-12-22T09:08:13.987Z,55.43
2022-12-22T09:10:43.299Z,47.30
2022-12-22T09:13:09.759Z,54.47
2022-12-22T09:15:37.098Z,51.77
2022-12-22T09:18:03.596Z,45.80
2022-12-22T09:20:30.070Z,45.43
2022-12-22T09:22:56.514Z,45.67
2022-12-22T09:25:22.995Z,44.23
2022-12-22T09:27:49.429Z,50.47
2022-12-22T09:30:16.017Z,46.47
2022-12-22T09:32:42.497Z,49.73
2022-12-22T09:35:09.235Z,50.50
2022-12-22T09:37:35.694Z,51.33
2022-12-22T09:40:02.189Z,52.87
2022-12-22T09:42:30.178Z,51.37
2022-12-22T09:44:56.707Z,46.77
2022-12-22T09:47:30.799Z,46.53
2022-12-22T09:49:58.142Z,51.13
2022-12-22T09:52:39.497Z,46.63
2022-12-22T09:55:26.218Z,47.93
2022-12-22T09:57:56.049Z,44.87
2022-12-22T10:00:28.297Z,50.97
2022-12-22T10:03:19.790Z,35.67
2022-12-22T10:05:55.993Z,34.33
2022-12-22T10:08:29.143Z,37.80
2022-12-22T10:10:56.750Z,35.50
2022-12-22T10:13:23.222Z,36.03
2022-12-22T10:15:49.793Z,33.97
2022-12-22T10:18:18.589Z,35.27
2022-12-22T10:20:47.364Z,35.20
2022-12-22T10:23:29.911Z,30.87
2022-12-22T10:28:52.022Z,35.50
2022-12-22T10:31:21.943Z,34.30
2022-12-22T10:33:51.243Z,38.10
2022-12-22T10:36:29.284Z,37.27
2022-12-22T10:38:59.671Z,33.17
2022-12-22T10:41:29.063Z,33.77
2022-12-22T10:43:57.960Z,37.43
2022-12-22T10:46:33.429Z,30.23
2022-12-22T10:49:13.640Z,31.57
2022-12-22T10:51:41.325Z,32.10
2022-12-22T10:54:07.764Z,31.97
2022-12-22T10:56:34.749Z,31.83
2022-12-22T10:59:01.152Z,33.77
2022-12-22T11:01:33.194Z,26.70
2022-12-22T11:04:25.978Z,26.57
2022-12-22T11:06:53.718Z,27.50
2022-12-22T11:09:35.933Z,25.90
2022-12-22T11:12:08.737Z,28.87
2022-12-22T11:15:04.470Z,29.17
2022-12-22T11:17:59.797Z,28.93
2022-12-22T11:20:32.258Z,26.50
2022-12-22T11:23:20.733Z,25.43
2022-12-22T11:25:50.198Z,24.43
2022-12-22T11:28:41.506Z,24.17
2022-12-22T11:31:18.076Z,24.43
2022-12-22T11:34:21.064Z,24.50
2022-12-22T11:37:16.058Z,21.20
2022-12-22T11:39:59.074Z,21.03
2022-12-22T11:43:03.103Z,21.80
2022-12-22T11:45:59.886Z,20.87
2022-12-22T11:48:54.979Z,21.67
2022-12-22T11:51:57.404Z,20.03
2022-12-22T11:54:45.178Z,18.57
2022-12-22T11:57:30.310Z,17.37
2022-12-22T12:00:09.148Z,17.53
2022-12-22T12:03:01.124Z,17.00
2022-12-22T12:05:42.835Z,15.67
2022-12-22T12:08:20.257Z,14.30
2022-12-22T12:11:18.349Z,14.60
2022-12-22T12:14:08.433Z,13.07
2022-12-22T12:17:13.422Z,12.80
2022-12-22T12:19:52.867Z,11.17
2022-12-22T12:22:29.506Z,12.90
2022-12-22T12:25:01.867Z,13.70
2022-12-22T12:28:05.299Z,12.73
2022-12-22T12:30:58.743Z,10.70
2022-12-22T12:33:31.237Z,8.53
2022-12-22T12:36:09.035Z,8.67
2022-12-22T12:39:08.409Z,8.43
2022-12-22T12:41:50.095Z,7.97
2022-12-22T12:44:19.348Z,8.47
2022-12-22T12:46:52.392Z,8.83
2022-12-22T12:49:34.358Z,10.50
2022-12-22T12:52:04.868Z,8.93
2022-12-22T12:54:43.682Z,8.90
2022-12-22T12:57:10.119Z,9.10
2022-12-22T12:59:42.807Z,9.50
2022-12-22T13:02:27.991Z,9.57
2022-12-22T13:05:13.375Z,9.33
2022-12-22T13:08:12.383Z,10.40
2022-12-22T13:10:44.731Z,9.17
2022-12-22T13:13:23.434Z,10.07
2022-12-22T13:16:12.367Z,9.70
2022-12-22T13:18:50.858Z,8.63
2022-12-22T13:24:25.137Z,10.03
2022-12-22T13:26:55.226Z,8.77
2022-12-22T13:29:21.740Z,9.57
2022-12-22T13:31:52.192Z,7.07
2022-12-22T13:35:28.968Z,7.67
2022-12-22T13:37:41.817Z,7.50
2022-12-22T13:40:17.150Z,8.77
2022-12-22T13:42:47.856Z,8.17
2022-12-22T13:45:18.991Z,9.03
2022-12-22T13:47:46.702Z,7.93
2022-12-22T13:50:34.759Z,8.80
2022-12-22T13:53:02.556Z,8.40
2022-12-22T13:55:31.063Z,8.43
2022-12-22T13:58:24.726Z,7.83
2022-12-22T14:01:20.855Z,7.77
2022-12-22T14:04:02.302Z,8.23
2022-12-22T14:06:36.159Z,7.37
2022-12-22T14:09:16.926Z,7.00
2022-12-22T14:11:52.067Z,7.83
2022-12-22T14:14:25.568Z,7.47
2022-12-22T14:16:53.775Z,8.23
2022-12-22T14:19:21.682Z,7.33
2022-12-22T14:21:56.196Z,7.47
2022-12-22T14:24:25.521Z,7.97
2022-12-22T14:26:53.510Z,7.17
2022-12-22T14:29:23.169Z,8.17
2022-12-22T14:31:58.861Z,7.00
2022-12-22T14:34:30.901Z,7.50
2022-12-22T14:37:00.830Z,7.37
2022-12-22T14:39:30.896Z,7.17
2022-12-22T14:42:02.316Z,7.70
2022-12-22T14:44:32.264Z,7.87
2022-12-22T14:47:12.519Z,7.63
2022-12-22T14:49:51.251Z,8.17
2022-12-22T14:52:25.075Z,7.47
2022-12-22T14:54:53.562Z,8.20
2022-12-22T14:57:28.211Z,6.93
2022-12-22T15:00:25.501Z,7.27
2022-12-22T15:02:58.464Z,8.40
2022-12-22T15:05:28.038Z,8.10
2022-12-22T15:08:06.872Z,7.37
2022-12-22T15:10:38.754Z,8.03
2022-12-22T15:13:07.412Z,7.03
2022-12-22T15:15:34.305Z,7.73
2022-12-22T15:18:00.769Z,7.83
2022-12-22T15:20:32.348Z,8.37
2022-12-22T15:23:01.818Z,7.53
2022-12-22T15:25:28.265Z,7.63
2022-12-22T15:27:54.744Z,8.30
2022-12-22T15:30:27.947Z,7.43
2022-12-22T15:32:55.504Z,8.00
2022-12-22T15:35:31.338Z,8.17
2022-12-22T15:37:58.228Z,8.50
2022-12-22T15:40:25.479Z,9.43
2022-12-22T15:42:52.098Z,8.37
2022-12-22T15:45:19.466Z,8.63
2022-12-22T15:47:50.314Z,8.80
2022-12-22T15:50:35.049Z,8.30
2022-12-22T15:53:05.413Z,8.50
2022-12-22T15:55:32.032Z,9.40
2022-12-22T15:57:59.137Z,9.80
2022-12-22T16:00:26.037Z,12.63
2022-12-22T16:02:52.757Z,11.73
2022-12-22T16:05:19.397Z,13.30
2022-12-22T16:07:45.910Z,11.33
2022-12-22T16:10:23.759Z,12.23
2022-12-22T16:12:55.475Z,12.53
2022-12-22T16:15:22.537Z,11.20
2022-12-22T16:17:51.701Z,14.60
2022-12-22T16:20:18.340Z,12.30
2022-12-22T16:22:45.094Z,12.30
2022-12-22T16:25:16.905Z,11.60
2022-12-22T16:27:43.820Z,10.53
2022-12-22T16:30:21.259Z,11.10
2022-12-22T16:32:47.947Z,12.37
2022-12-22T16:35:17.852Z,12.23
2022-12-22T16:37:45.040Z,11.93
2022-12-22T16:40:12.272Z,12.17
2022-12-22T16:45:27.389Z,10.80
2022-12-22T16:47:54.313Z,11.20
2022-12-22T16:50:22.581Z,12.83
2022-12-22T16:52:49.732Z,11.80
2022-12-22T16:55:20.978Z,11.97
2022-12-22T16:57:47.594Z,12.93
2022-12-22T17:00:17.948Z,12.83
2022-12-22T17:02:47.520Z,12.13
2022-12-22T17:05:27.005Z,11.33
2022-12-22T17:07:55.254Z,12.27
2022-12-22T17:10:22.849Z,11.50
2022-12-22T17:12:52.099Z,11.10
2022-12-22T17:15:21.455Z,11.90
2022-12-22T17:17:49.121Z,11.43
2022-12-22T17:20:17.128Z,11.93
2022-12-22T17:22:46.200Z,12.00
2022-12-22T17:25:25.039Z,11.77
2022-12-22T17:27:51.610Z,11.23
2022-12-22T17:30:23.239Z,11.53
2022-12-22T17:32:52.806Z,11.50
2022-12-22T17:35:21.271Z,11.33
2022-12-22T17:37:48.244Z,11.97
2022-12-22T17:40:30.813Z,11.23
2022-12-22T17:43:00.318Z,11.87
2022-12-22T17:45:26.930Z,12.00
2022-12-22T17:47:53.423Z,12.63
2022-12-22T17:50:21.426Z,11.27
2022-12-22T17:52:48.036Z,11.40
2022-12-22T17:56:07.196Z,12.13
2022-12-22T17:58:27.341Z,12.37
2022-12-22T18:00:53.807Z,12.37
2022-12-22T18:03:20.534Z,11.40
2022-12-22T18:05:48.136Z,12.37
2022-12-22T18:08:19.990Z,11.67
2022-12-22T18:10:47.258Z,12.97
2022-12-22T18:13:16.768Z,12.27
2022-12-22T18:15:43.363Z,12.30
2022-12-22T18:18:15.036Z,12.73
2022-12-22T18:20:42.271Z,12.63
2022-12-22T18:23:16.885Z,11.53
2022-12-22T18:25:43.421Z,12.80
2022-12-22T18:28:14.913Z,12.50
2022-12-22T18:30:41.726Z,13.50
2022-12-22T18:33:08.802Z,19.10
2022-12-22T18:35:37.728Z,12.40
2022-12-22T18:38:05.031Z,14.80
2022-12-22T18:40:37.217Z,12.33
2022-12-22T18:43:06.991Z,13.07
2022-12-22T18:45:33.574Z,13.03
2022-12-22T18:48:00.023Z,12.07
2022-12-22T18:50:29.003Z,12.33
2022-12-22T18:52:57.601Z,12.03
2022-12-22T18:55:27.584Z,13.43
2022-12-22T18:57:55.798Z,11.63
2022-12-22T19:00:25.715Z,12.90
2022-12-22T19:02:54.188Z,11.70
2022-12-22T19:05:31.551Z,14.03
2022-12-22T19:07:58.553Z,12.07
2022-12-22T19:10:38.095Z,14.53
2022-12-22T19:13:07.576Z,10.50
2022-12-22T19:15:36.484Z,10.97
2022-12-22T19:18:03.361Z,10.20
2022-12-22T19:20:29.791Z,9.27
2022-12-22T19:22:56.264Z,9.47
2022-12-22T19:25:28.634Z,10.00
2022-12-22T19:27:58.985Z,9.50
2022-12-22T19:30:27.256Z,8.73
2022-12-22T19:32:56.990Z,9.30
2022-12-22T19:35:24.550Z,7.70
2022-12-22T19:37:53.062Z,7.20
2022-12-22T19:40:21.916Z,7.97
2022-12-22T19:42:50.761Z,7.03
2022-12-22T19:45:22.143Z,7.57
2022-12-22T19:47:49.229Z,7.03
2022-12-22T19:50:25.031Z,7.87
2022-12-22T19:52:52.284Z,7.33
2022-12-22T19:55:19.340Z,7.77
2022-12-22T19:57:47.374Z,7.73
2022-12-22T20:00:26.248Z,7.50
2022-12-22T20:02:55.320Z,8.03
2022-12-22T20:05:24.982Z,8.10
2022-12-22T20:07:53.130Z,7.50
2022-12-22T20:10:20.345Z,7.87
2022-12-22T20:12:49.085Z,8.50
2022-12-22T20:15:19.550Z,9.20
2022-12-22T20:17:47.067Z,9.30
2022-12-22T20:20:21.449Z,10.30
2022-12-22T20:22:54.638Z,10.73
2022-12-22T20:25:26.781Z,12.57
2022-12-22T20:27:54.626Z,12.80
2022-12-22T20:30:28.854Z,14.80
2022-12-22T20:32:55.598Z,14.67
2022-12-22T20:35:23.082Z,16.27
2022-12-22T20:37:51.287Z,17.00
2022-12-22T20:40:24.723Z,17.70
2022-12-22T20:42:51.858Z,17.97
2022-12-22T20:45:21.083Z,18.87
2022-12-22T20:47:50.095Z,20.00
2022-12-22T20:50:22.475Z,20.90
2022-12-22T20:52:50.425Z,20.00
2022-12-22T20:55:22.793Z,21.63
2022-12-22T20:57:50.611Z,22.13
2022-12-22T21:00:17.312Z,22.07
2022-12-22T21:02:44.697Z,22.57
2022-12-22T21:05:12.943Z,22.57
2022-12-22T21:07:39.440Z,23.40
2022-12-22T21:10:06.807Z,24.77
2022-12-22T21:12:33.298Z,25.53
2022-12-22T21:15:00.297Z,28.73
2022-12-22T21:17:27.394Z,32.43
2022-12-22T21:19:53.913Z,31.03
2022-12-22T21:22:20.352Z,32.93
2022-12-22T21:24:46.827Z,35.57
2022-12-22T21:27:18.487Z,37.03
2022-12-22T21:29:45.042Z,36.17
2022-12-22T21:32:15.412Z,43.50
2022-12-22T21:34:42.614Z,39.33
2022-12-22T21:37:16.137Z,34.90
2022-12-22T21:39:44.778Z,32.43
2022-12-22T21:42:18.647Z,35.20
2022-12-22T21:44:45.808Z,43.40
2022-12-22T21:47:14.440Z,34.27
2022-12-22T21:49:41.683Z,37.03
2022-12-22T21:52:08.178Z,36.73
2022-12-22T21:54:34.656Z,41.73
2022-12-22T21:57:01.524Z,36.63
2022-12-22T21:59:28.536Z,38.60
2022-12-22T22:01:56.681Z,38.73
2022-12-22T22:04:24.376Z,36.40
2022-12-22T22:06:50.843Z,33.07
2022-12-22T22:09:17.313Z,40.03
2022-12-22T22:12:02.486Z,39.53
2022-12-22T22:14:28.954Z,28.97
2022-12-22T22:16:55.856Z,37.80
2022-12-22T22:19:22.399Z,40.87
2022-12-22T22:21:48.924Z,26.40
2022-12-22T22:24:15.381Z,23.57
2022-12-22T22:26:45.143Z,24.77
2022-12-22T22:29:11.711Z,26.97
2022-12-22T22:31:38.449Z,26.00
2022-12-22T22:34:05.173Z,25.97
2022-12-22T22:36:31.681Z,26.33
2022-12-22T22:38:58.170Z,26.77
2022-12-22T22:41:25.589Z,25.17
2022-12-22T22:43:55.114Z,25.57
2022-12-22T22:46:21.772Z,26.17
2022-12-22T22:48:48.424Z,27.30
2022-12-22T22:51:14.898Z,26.97
2022-12-22T22:53:41.388Z,27.57
2022-12-22T22:56:08.126Z,26.20
2022-12-22T22:58:36.044Z,27.27
2022-12-22T23:01:06.948Z,27.27
2022-12-22T23:03:34.290Z,28.60
2022-12-22T23:06:05.312Z,27.00
2022-12-22T23:08:33.772Z,28.07
2022-12-22T23:11:01.234Z,29.17
2022-12-22T23:13:28.811Z,28.47
2022-12-22T23:16:01.052Z,27.97
2022-12-22T23:18:28.240Z,29.13
2022-12-22T23:20:57.867Z,29.70
2022-12-22T23:23:24.527Z,30.70
2022-12-22T23:25:54.928Z,31.20
2022-12-22T23:28:21.369Z,29.90
2022-12-22T23:30:49.625Z,30.10
2022-12-22T23:33:17.145Z,29.77
2022-12-22T23:35:46.688Z,29.67
2022-12-22T23:38:13.940Z,29.13
2022-12-22T23:40:56.247Z,30.23
2022-12-22T23:43:22.801Z,29.17
2022-12-22T23:45:49.289Z,31.00
2022-12-22T23:48:15.869Z,30.40
2022-12-22T23:50:45.774Z,28.87
2022-12-22T23:53:12.257Z,30.57
2022-12-22T23:55:43.522Z,30.93
2022-12-22T23:58:10.066Z,31.50
